createdAt,value
2018-10-19T00:02:11.845Z,64.82
2018-10-19T00:04:40.142Z,64.99
2018-10-19T00:07:08.569Z,64.82
2018-10-19T00:09:36.863Z,64.80
2018-10-19T00:12:05.529Z,65.05
2018-10-19T00:14:33.929Z,64.84
2018-10-19T00:17:02.285Z,64.62
2018-10-19T00:19:30.699Z,64.72
2018-10-19T00:21:59.037Z,64.40
2018-10-19T00:24:27.472Z,64.14
2018-10-19T00:26:55.920Z,64.47
2018-10-19T00:29:24.381Z,64.46
2018-10-19T00:31:52.687Z,64.50
2018-10-19T00:34:21.189Z,64.77
2018-10-19T00:36:49.561Z,64.99
2018-10-19T00:39:17.853Z,65.07
2018-10-19T00:41:46.341Z,64.98
2018-10-19T00:44:14.745Z,64.79
2018-10-19T00:46:43.107Z,64.89
2018-10-19T00:49:11.487Z,64.63
2018-10-19T00:51:40.063Z,64.66
2018-10-19T00:54:08.713Z,65.27
2018-10-19T00:56:37.139Z,64.88
2018-10-19T00:59:05.852Z,65.08
2018-10-19T01:01:34.261Z,65.06
2018-10-19T01:04:02.779Z,64.64
2018-10-19T01:06:31.177Z,64.33
2018-10-19T01:08:59.547Z,64.04
2018-10-19T01:11:27.924Z,63.74
2018-10-19T01:13:56.420Z,63.92
2018-10-19T01:16:24.773Z,64.31
2018-10-19T01:18:53.139Z,64.67
2018-10-19T01:21:21.438Z,64.95
2018-10-19T01:23:49.802Z,65.07
2018-10-19T01:26:18.194Z,65.18
2018-10-19T01:28:46.595Z,65.37
2018-10-19T01:31:15.011Z,65.50
2018-10-19T01:33:43.491Z,65.67
2018-10-19T01:36:11.835Z,65.94
2018-10-19T01:38:40.704Z,66.40
2018-10-19T01:41:09.090Z,66.84
2018-10-19T01:43:37.647Z,66.88
2018-10-19T01:46:06.290Z,67.53
2018-10-19T01:48:34.738Z,67.91
2018-10-19T01:51:03.143Z,67.81
2018-10-19T01:53:31.538Z,67.63
2018-10-19T01:56:00.123Z,67.41
2018-10-19T01:58:28.742Z,67.15
2018-10-19T02:00:57.114Z,66.78
2018-10-19T02:03:25.483Z,66.58
2018-10-19T02:05:53.960Z,66.49
2018-10-19T02:08:22.241Z,65.77
2018-10-19T02:10:50.642Z,65.65
2018-10-19T02:13:19.226Z,65.49
2018-10-19T02:15:47.763Z,65.68
2018-10-19T02:18:16.066Z,65.86
2018-10-19T02:20:44.567Z,65.71
2018-10-19T02:23:12.995Z,65.80
2018-10-19T02:25:41.398Z,66.04
2018-10-19T02:28:09.702Z,66.23
2018-10-19T02:30:38.063Z,66.57
2018-10-19T02:33:06.531Z,66.83
2018-10-19T02:35:34.851Z,66.85
2018-10-19T02:38:03.226Z,66.84
2018-10-19T02:40:31.622Z,66.69
2018-10-19T02:43:00.087Z,66.54
2018-10-19T02:45:28.395Z,66.34
2018-10-19T02:47:56.802Z,66.13
2018-10-19T02:50:25.107Z,65.94
2018-10-19T02:52:53.501Z,65.93
2018-10-19T02:55:21.859Z,65.72
2018-10-19T02:57:50.337Z,65.60
2018-10-19T03:00:18.620Z,65.26
2018-10-19T03:02:47.089Z,65.43
2018-10-19T03:05:15.573Z,65.48
2018-10-19T03:07:43.813Z,65.35
2018-10-19T03:10:12.229Z,65.45
2018-10-19T03:12:40.571Z,65.74
2018-10-19T03:15:09.967Z,65.84
2018-10-19T03:17:38.503Z,65.48
2018-10-19T03:20:07.925Z,65.67
2018-10-19T03:22:36.865Z,65.56
2018-10-19T03:25:05.271Z,65.55
2018-10-19T03:27:33.778Z,65.74
2018-10-19T03:30:02.196Z,65.70
2018-10-19T03:32:30.623Z,65.58
2018-10-19T03:34:59.096Z,65.49
2018-10-19T03:37:27.407Z,65.60
2018-10-19T03:39:55.823Z,65.46
2018-10-19T03:42:24.139Z,65.33
2018-10-19T03:44:52.512Z,65.66
2018-10-19T03:47:20.868Z,65.82
2018-10-19T03:49:49.296Z,66.09
2018-10-19T03:52:17.625Z,66.42
2018-10-19T03:54:45.907Z,66.32
2018-10-19T03:57:14.455Z,66.34
2018-10-19T03:59:42.860Z,66.58
2018-10-19T04:02:11.311Z,66.80
2018-10-19T04:04:39.753Z,66.99
2018-10-19T04:07:08.247Z,67.16
2018-10-19T04:09:42.835Z,67.55
2018-10-19T04:12:11.099Z,67.72
2018-10-19T04:14:39.685Z,67.96
2018-10-19T04:17:08.202Z,68.16
2018-10-19T04:19:36.451Z,68.29
2018-10-19T04:22:05.029Z,67.84
2018-10-19T04:24:33.339Z,67.60
2018-10-19T04:27:01.925Z,67.78
2018-10-19T04:29:30.261Z,68.28
2018-10-19T04:31:58.661Z,68.04
2018-10-19T04:34:27.098Z,68.10
2018-10-19T04:37:04.890Z,68.19
2018-10-19T04:39:33.734Z,68.35
2018-10-19T04:42:02.841Z,68.37
2018-10-19T04:44:31.058Z,68.31
2018-10-19T04:46:59.645Z,68.44
2018-10-19T04:49:28.320Z,68.41
2018-10-19T04:51:56.657Z,68.48
2018-10-19T04:54:24.999Z,68.64
2018-10-19T04:56:53.376Z,68.49
2018-10-19T04:59:21.874Z,68.34
2018-10-19T05:01:50.421Z,67.99
2018-10-19T05:04:18.715Z,68.09
2018-10-19T05:06:47.231Z,67.98
2018-10-19T05:09:15.570Z,67.68
2018-10-19T05:11:43.962Z,67.81
2018-10-19T05:14:12.537Z,67.84
2018-10-19T05:16:40.826Z,67.76
2018-10-19T05:19:09.378Z,67.56
2018-10-19T05:21:38.167Z,67.37
2018-10-19T05:24:06.570Z,67.36
2018-10-19T05:26:34.967Z,67.39
2018-10-19T05:29:03.410Z,67.42
2018-10-19T05:31:31.697Z,67.51
2018-10-19T05:34:00.078Z,67.54
2018-10-19T05:36:28.504Z,67.45
2018-10-19T05:38:56.809Z,67.28
2018-10-19T05:41:25.121Z,67.53
2018-10-19T05:43:53.541Z,67.56
2018-10-19T05:46:21.866Z,67.93
2018-10-19T05:48:50.155Z,68.31
2018-10-19T05:51:18.490Z,68.24
2018-10-19T05:53:46.803Z,68.11
2018-10-19T05:56:15.111Z,68.08
2018-10-19T05:58:43.445Z,68.00
2018-10-19T06:01:11.991Z,68.45
2018-10-19T06:03:40.320Z,68.61
2018-10-19T06:06:08.835Z,68.85
2018-10-19T06:08:37.294Z,68.77
2018-10-19T06:11:06.195Z,69.17
2018-10-19T06:13:34.505Z,69.30
2018-10-19T06:16:02.830Z,69.51
2018-10-19T06:18:31.378Z,69.63
2018-10-19T06:20:59.745Z,69.28
2018-10-19T06:23:28.039Z,69.13
2018-10-19T06:25:56.333Z,69.41
2018-10-19T06:28:24.643Z,69.56
2018-10-19T06:30:53.104Z,69.92
2018-10-19T06:33:21.471Z,69.98
2018-10-19T06:35:49.890Z,70.05
2018-10-19T06:38:18.198Z,69.62
2018-10-19T06:40:46.625Z,69.19
2018-10-19T06:43:14.826Z,69.10
2018-10-19T06:45:43.086Z,69.36
2018-10-19T06:48:11.434Z,69.15
2018-10-19T06:50:39.713Z,69.44
2018-10-19T06:53:08.040Z,69.52
2018-10-19T06:55:36.328Z,69.61
2018-10-19T06:58:05.258Z,69.35
2018-10-19T07:00:33.638Z,69.60
2018-10-19T07:03:02.030Z,69.67
2018-10-19T07:05:30.405Z,69.78
2018-10-19T07:07:58.844Z,69.67
2018-10-19T07:10:27.231Z,69.36
2018-10-19T07:12:55.555Z,69.44
2018-10-19T07:15:23.849Z,69.37
2018-10-19T07:17:52.194Z,69.11
2018-10-19T07:20:20.787Z,69.43
2018-10-19T07:22:49.106Z,69.81
2018-10-19T07:25:17.416Z,69.95
2018-10-19T07:27:45.863Z,70.09
2018-10-19T07:30:14.249Z,70.04
2018-10-19T07:32:42.646Z,70.11
2018-10-19T07:35:11.006Z,70.05
2018-10-19T07:37:39.315Z,70.08
2018-10-19T07:40:07.818Z,69.99
2018-10-19T07:42:36.274Z,70.06
2018-10-19T07:45:04.695Z,69.79
2018-10-19T07:47:33.070Z,69.76
2018-10-19T07:50:01.596Z,69.78
2018-10-19T07:52:29.842Z,70.15
2018-10-19T07:54:58.169Z,70.21
2018-10-19T07:57:26.595Z,69.74
2018-10-19T07:59:54.932Z,70.16
2018-10-19T08:02:23.443Z,70.12
2018-10-19T08:04:51.771Z,70.08
2018-10-19T08:07:20.180Z,69.94
2018-10-19T08:09:48.730Z,70.08
2018-10-19T08:12:17.154Z,70.33
2018-10-19T08:14:45.469Z,70.16
2018-10-19T08:17:13.863Z,69.81
2018-10-19T08:19:42.227Z,69.93
2018-10-19T08:22:10.649Z,69.91
2018-10-19T08:24:39.187Z,69.69
2018-10-19T08:27:07.791Z,69.73
2018-10-19T08:29:36.295Z,69.81
2018-10-19T08:32:05.385Z,69.86
2018-10-19T08:34:33.823Z,69.80
2018-10-19T08:37:02.311Z,69.88
2018-10-19T08:39:30.627Z,70.31
2018-10-19T08:41:59.315Z,70.13
2018-10-19T08:44:27.877Z,70.23
2018-10-19T08:46:56.297Z,70.39
2018-10-19T08:49:24.699Z,70.16
2018-10-19T08:51:53.020Z,70.36
2018-10-19T08:54:21.593Z,70.20
2018-10-19T08:56:50.089Z,70.40
2018-10-19T08:59:18.533Z,69.91
2018-10-19T09:01:46.943Z,70.01
2018-10-19T09:04:15.564Z,70.08
2018-10-19T09:06:43.818Z,69.90
2018-10-19T09:09:12.508Z,69.78
2018-10-19T09:11:41.442Z,69.78
2018-10-19T09:14:20.868Z,70.20
2018-10-19T09:16:49.614Z,70.39
2018-10-19T09:19:18.167Z,70.35
2018-10-19T09:21:46.457Z,70.74
2018-10-19T09:24:14.766Z,70.94
2018-10-19T09:26:44.287Z,71.28
2018-10-19T09:29:13.107Z,70.85
2018-10-19T09:31:41.631Z,70.86
2018-10-19T09:34:10.011Z,70.53
2018-10-19T09:36:38.450Z,70.36
2018-10-19T09:39:10.065Z,70.20
2018-10-19T09:41:38.419Z,70.11
2018-10-19T09:44:06.744Z,69.84
2018-10-19T09:46:38.150Z,69.68
2018-10-19T09:49:07.359Z,69.55
2018-10-19T09:51:36.268Z,69.70
2018-10-19T09:54:04.773Z,69.64
2018-10-19T09:56:33.374Z,69.37
2018-10-19T09:59:02.312Z,69.40
2018-10-19T10:01:30.929Z,69.47
2018-10-19T10:03:59.457Z,69.00
2018-10-19T10:06:28.271Z,68.70
2018-10-19T10:08:57.197Z,69.08
2018-10-19T10:11:25.511Z,68.78
2018-10-19T10:13:54.372Z,68.63
2018-10-19T10:16:22.993Z,68.71
2018-10-19T10:18:51.390Z,68.72
2018-10-19T10:21:19.735Z,68.18
2018-10-19T10:23:48.255Z,68.00
2018-10-19T10:26:16.623Z,68.38
2018-10-19T10:28:44.991Z,68.44
2018-10-19T10:31:13.447Z,68.65
2018-10-19T10:33:41.754Z,68.91
2018-10-19T10:36:10.434Z,68.88
2018-10-19T10:38:38.856Z,68.82
2018-10-19T10:41:07.326Z,68.50
2018-10-19T10:43:35.699Z,68.63
2018-10-19T10:46:04.144Z,68.94
2018-10-19T10:48:32.410Z,68.99
2018-10-19T10:51:01.066Z,68.93
2018-10-19T10:53:29.426Z,68.95
2018-10-19T10:55:57.855Z,68.99
2018-10-19T10:58:26.235Z,68.81
2018-10-19T11:00:55.093Z,68.93
2018-10-19T11:03:23.429Z,68.50
2018-10-19T11:05:51.811Z,68.61
2018-10-19T11:08:20.303Z,68.92
2018-10-19T11:10:48.630Z,68.95
2018-10-19T11:13:17.147Z,69.29
2018-10-19T11:15:45.642Z,69.00
2018-10-19T11:18:14.078Z,69.24
2018-10-19T11:20:42.454Z,68.97
2018-10-19T11:23:10.790Z,69.10
2018-10-19T11:25:39.126Z,68.83
2018-10-19T11:28:07.487Z,68.79
2018-10-19T11:30:35.778Z,68.74
2018-10-19T11:33:04.154Z,68.48
2018-10-19T11:35:32.526Z,68.53
2018-10-19T11:38:01.012Z,68.94
2018-10-19T11:40:36.310Z,69.29
2018-10-19T11:43:05.044Z,69.33
2018-10-19T11:45:34.291Z,69.27
2018-10-19T11:48:02.614Z,69.08
2018-10-19T11:50:31.029Z,69.01
2018-10-19T11:52:59.351Z,68.88
2018-10-19T11:55:27.694Z,68.64
2018-10-19T11:57:56.065Z,67.83
2018-10-19T12:00:24.418Z,67.75
2018-10-19T12:02:52.799Z,67.96
2018-10-19T12:05:21.162Z,67.66
2018-10-19T12:07:49.554Z,67.41
2018-10-19T12:10:17.906Z,67.87
2018-10-19T12:12:48.351Z,67.48
2018-10-19T12:15:35.230Z,67.46
2018-10-19T12:18:09.425Z,67.20
2018-10-19T12:20:38.151Z,67.35
2018-10-19T12:23:06.538Z,67.15
2018-10-19T12:25:34.871Z,67.26
2018-10-19T12:28:03.320Z,66.94
2018-10-19T12:30:31.621Z,66.76
2018-10-19T12:33:00.015Z,66.47
2018-10-19T12:35:28.499Z,66.15
2018-10-19T12:37:56.794Z,66.02
2018-10-19T12:40:25.160Z,65.86
2018-10-19T12:42:53.509Z,66.25
2018-10-19T12:46:33.813Z,66.28
2018-10-19T12:49:02.228Z,65.98
2018-10-19T12:51:30.586Z,65.80
2018-10-19T12:53:59.090Z,65.88
2018-10-19T12:56:27.348Z,65.85
2018-10-19T12:58:56.142Z,65.30
2018-10-19T13:01:25.719Z,65.53
2018-10-19T13:03:54.119Z,65.21
2018-10-19T13:06:22.612Z,65.23
2018-10-19T13:08:51.383Z,65.70
2018-10-19T13:11:19.772Z,65.60
2018-10-19T13:13:48.151Z,65.74
2018-10-19T13:16:16.722Z,65.70
2018-10-19T13:18:44.954Z,65.69
2018-10-19T13:21:13.537Z,65.11
2018-10-19T13:23:41.858Z,65.45
2018-10-19T13:26:44.231Z,65.11
2018-10-19T13:29:39.599Z,65.05
2018-10-19T13:32:07.978Z,65.18
2018-10-19T13:34:36.443Z,64.89
2018-10-19T13:37:04.877Z,65.00
2018-10-19T13:39:33.262Z,64.95
2018-10-19T13:42:01.647Z,64.48
2018-10-19T13:44:29.975Z,64.52
2018-10-19T13:46:58.449Z,64.78
2018-10-19T13:49:26.802Z,64.42
2018-10-19T13:51:55.154Z,64.77
2018-10-19T13:54:23.626Z,64.73
2018-10-19T13:56:51.998Z,64.64
2018-10-19T13:59:20.308Z,64.46
2018-10-19T14:01:48.672Z,64.70
2018-10-19T14:04:17.031Z,64.41
2018-10-19T14:06:45.526Z,64.34
2018-10-19T14:09:13.921Z,64.16
2018-10-19T14:11:42.214Z,64.54
2018-10-19T14:14:10.554Z,64.34
2018-10-19T14:16:39.334Z,64.41
2018-10-19T14:19:07.901Z,64.39
2018-10-19T14:21:36.193Z,64.17
2018-10-19T14:24:04.602Z,64.35
2018-10-19T14:26:33.313Z,64.51
2018-10-19T14:29:01.613Z,64.22
2018-10-19T14:31:29.910Z,64.28
2018-10-19T14:33:58.266Z,63.94
2018-10-19T14:36:26.606Z,63.99
2018-10-19T14:38:54.974Z,64.07
2018-10-19T14:41:23.275Z,64.12
2018-10-19T14:43:51.706Z,63.95
2018-10-19T14:46:20.178Z,64.35
2018-10-19T14:48:48.513Z,64.11
2018-10-19T14:51:16.939Z,64.08
2018-10-19T14:53:45.219Z,64.30
2018-10-19T14:56:13.714Z,64.43
2018-10-19T14:58:42.182Z,64.87
2018-10-19T15:01:10.546Z,64.70
2018-10-19T15:03:38.970Z,65.14
2018-10-19T15:06:07.315Z,64.88
2018-10-19T15:08:35.706Z,65.43
2018-10-19T15:11:04.306Z,65.62
2018-10-19T15:13:32.462Z,65.80
2018-10-19T15:16:00.922Z,66.01
2018-10-19T15:18:29.491Z,65.84
2018-10-19T15:20:57.795Z,65.62
2018-10-19T15:23:26.210Z,66.08
2018-10-19T15:25:54.681Z,65.80
2018-10-19T15:28:22.972Z,66.19
2018-10-19T15:30:51.306Z,66.08
2018-10-19T15:33:20.004Z,66.13
2018-10-19T15:35:48.365Z,66.22
2018-10-19T15:38:16.750Z,66.88
2018-10-19T15:40:45.094Z,66.71
2018-10-19T15:43:13.514Z,66.91
2018-10-19T15:45:41.877Z,67.51
2018-10-19T15:48:10.342Z,67.60
2018-10-19T15:50:38.634Z,67.66
2018-10-19T15:53:07.102Z,67.34
2018-10-19T15:55:35.406Z,67.57
2018-10-19T15:58:03.723Z,67.98
2018-10-19T16:00:32.060Z,67.76
2018-10-19T16:03:00.490Z,67.71
2018-10-19T16:05:28.827Z,67.93
2018-10-19T16:07:57.387Z,67.84
2018-10-19T16:10:26.151Z,68.43
2018-10-19T16:12:54.535Z,68.61
2018-10-19T16:15:22.801Z,68.41
2018-10-19T16:17:51.252Z,68.61
2018-10-19T16:20:19.587Z,68.72
2018-10-19T16:22:47.963Z,68.70
2018-10-19T16:25:16.370Z,68.63
2018-10-19T16:27:44.679Z,69.20
2018-10-19T16:30:13.068Z,68.87
2018-10-19T16:32:41.406Z,69.18
2018-10-19T16:35:09.763Z,69.38
2018-10-19T16:37:39.279Z,69.18
2018-10-19T16:40:07.970Z,69.51
2018-10-19T16:42:36.312Z,69.35
2018-10-19T16:45:05.027Z,69.47
2018-10-19T16:47:33.525Z,69.14
2018-10-19T16:50:02.367Z,69.29
2018-10-19T16:52:30.845Z,69.16
2018-10-19T16:54:59.198Z,69.54
2018-10-19T16:57:27.495Z,69.30
2018-10-19T16:59:55.871Z,69.48
2018-10-19T17:02:24.199Z,69.22
2018-10-19T17:04:52.568Z,69.08
2018-10-19T17:07:20.946Z,68.96
2018-10-19T17:09:49.313Z,69.07
2018-10-19T17:12:18.571Z,69.42
2018-10-19T17:14:46.893Z,68.92
2018-10-19T17:17:15.304Z,69.44
2018-10-19T17:19:43.765Z,69.69
2018-10-19T17:22:12.185Z,69.38
2018-10-19T17:24:40.716Z,69.45
2018-10-19T17:27:09.157Z,69.60
2018-10-19T17:29:37.477Z,69.71
2018-10-19T17:32:05.996Z,69.61
2018-10-19T17:34:35.331Z,69.54
2018-10-19T17:37:03.831Z,70.21
2018-10-19T17:39:32.147Z,70.22
2018-10-19T17:42:00.703Z,69.77
2018-10-19T17:44:29.092Z,69.75
2018-10-19T17:46:57.499Z,70.08
2018-10-19T17:49:25.826Z,70.01
2018-10-19T17:51:54.122Z,70.66
2018-10-19T17:54:22.623Z,70.56
2018-10-19T17:56:51.894Z,70.65
2018-10-19T17:59:20.289Z,70.38
2018-10-19T18:01:48.850Z,70.39
2018-10-19T18:04:17.204Z,70.95
2018-10-19T18:06:45.618Z,71.07
2018-10-19T18:09:14.127Z,70.96
2018-10-19T18:11:42.574Z,71.24
2018-10-19T18:14:10.938Z,71.49
2018-10-19T18:16:40.040Z,71.44
2018-10-19T18:19:08.378Z,71.18
2018-10-19T18:21:36.821Z,70.85
2018-10-19T18:24:05.550Z,70.85
2018-10-19T18:26:33.957Z,70.89
2018-10-19T18:29:02.435Z,70.68
2018-10-19T18:31:30.712Z,70.47
2018-10-19T18:33:59.009Z,70.73
2018-10-19T18:36:27.598Z,70.67
2018-10-19T18:38:56.043Z,70.97
2018-10-19T18:41:24.483Z,70.65
2018-10-19T18:43:52.891Z,70.60
2018-10-19T18:46:21.335Z,70.57
2018-10-19T18:48:49.681Z,70.48
2018-10-19T18:51:18.066Z,70.60
2018-10-19T18:53:46.460Z,70.67
2018-10-19T18:56:14.939Z,70.77
2018-10-19T18:58:43.140Z,71.31
2018-10-19T19:01:11.490Z,70.95
2018-10-19T19:03:39.949Z,70.89
2018-10-19T19:06:08.486Z,71.25
2018-10-19T19:08:36.935Z,71.24
2018-10-19T19:11:05.431Z,71.38
2018-10-19T19:13:33.788Z,71.73
2018-10-19T19:16:02.334Z,71.60
2018-10-19T19:18:30.718Z,71.92
2018-10-19T19:20:59.999Z,71.95
2018-10-19T19:23:28.358Z,71.69
2018-10-19T19:26:01.992Z,71.67
2018-10-19T19:28:30.440Z,71.46
2018-10-19T19:30:58.886Z,71.85
2018-10-19T19:33:32.462Z,71.70
2018-10-19T19:36:00.799Z,71.92
2018-10-19T19:38:29.123Z,71.58
2018-10-19T19:41:02.772Z,71.77
2018-10-19T19:43:31.081Z,71.44
2018-10-19T19:45:59.510Z,71.52
2018-10-19T19:48:33.350Z,71.82
2018-10-19T19:51:01.851Z,72.28
2018-10-19T19:53:30.146Z,72.01
2018-10-19T19:55:58.876Z,71.91
2018-10-19T19:58:27.143Z,72.15
2018-10-19T20:00:55.479Z,71.87
2018-10-19T20:03:23.915Z,72.05
2018-10-19T20:05:52.284Z,71.69
2018-10-19T20:08:20.595Z,71.78
2018-10-19T20:10:48.951Z,72.01
2018-10-19T20:13:17.295Z,71.45
2018-10-19T20:15:45.575Z,72.02
2018-10-19T20:18:14.051Z,71.81
2018-10-19T20:20:42.323Z,71.46
2018-10-19T20:23:10.761Z,71.38
2018-10-19T20:25:39.091Z,71.59
2018-10-19T20:28:07.443Z,71.75
2018-10-19T20:30:35.905Z,71.84
2018-10-19T20:33:05.107Z,71.57
2018-10-19T20:35:33.485Z,71.64
2018-10-19T20:38:02.026Z,71.66
2018-10-19T20:40:30.261Z,71.67
2018-10-19T20:42:58.576Z,71.54
2018-10-19T20:45:26.864Z,71.53
2018-10-19T20:47:55.238Z,71.79
2018-10-19T20:50:23.546Z,71.64
2018-10-19T20:52:51.932Z,71.61
2018-10-19T20:55:20.296Z,71.93
2018-10-19T20:57:48.565Z,71.83
2018-10-19T21:00:16.898Z,71.66
2018-10-19T21:02:45.350Z,71.56
2018-10-19T21:05:14.678Z,71.42
2018-10-19T21:07:43.006Z,70.81
2018-10-19T21:10:12.705Z,70.66
2018-10-19T21:12:40.983Z,70.94
2018-10-19T21:15:13.594Z,70.96
2018-10-19T21:17:42.644Z,70.65
2018-10-19T21:20:12.279Z,70.58
2018-10-19T21:22:40.627Z,70.56
2018-10-19T21:25:10.851Z,70.60
2018-10-19T21:27:39.382Z,70.37
2018-10-19T21:30:09.211Z,70.42
2018-10-19T21:32:37.842Z,70.74
2018-10-19T21:35:06.323Z,70.87
2018-10-19T21:37:34.781Z,70.85
2018-10-19T21:40:03.107Z,71.22
2018-10-19T21:42:31.446Z,71.39
2018-10-19T21:44:59.770Z,71.50
2018-10-19T21:47:28.495Z,71.45
2018-10-19T21:49:56.866Z,71.34
2018-10-19T21:52:25.198Z,71.49
2018-10-19T21:54:53.493Z,71.44
2018-10-19T21:57:23.057Z,71.12
2018-10-19T21:59:51.516Z,71.31
2018-10-19T22:02:20.025Z,71.07
2018-10-19T22:04:48.629Z,70.93
2018-10-19T22:07:16.974Z,71.17
2018-10-19T22:09:45.304Z,71.20
2018-10-19T22:12:13.988Z,71.21
2018-10-19T22:14:42.327Z,71.06
2018-10-19T22:17:10.859Z,71.03
2018-10-19T22:19:39.227Z,70.82
2018-10-19T22:22:07.546Z,70.76
2018-10-19T22:24:36.098Z,70.86
2018-10-19T22:27:04.666Z,71.18
2018-10-19T22:29:33.190Z,71.12
2018-10-19T22:32:01.489Z,70.86
2018-10-19T22:34:29.797Z,70.88
2018-10-19T22:36:58.152Z,71.02
2018-10-19T22:39:26.498Z,70.74
2018-10-19T22:41:54.948Z,70.68
2018-10-19T22:44:23.753Z,70.30
2018-10-19T22:46:52.222Z,70.47
2018-10-19T22:49:20.602Z,70.23
2018-10-19T22:51:48.996Z,70.40
2018-10-19T22:54:17.316Z,70.59
2018-10-19T22:56:46.164Z,70.83
2018-10-19T22:59:14.580Z,70.46
2018-10-19T23:01:42.875Z,70.74
2018-10-19T23:04:11.141Z,70.55
2018-10-19T23:06:39.474Z,70.47
2018-10-19T23:09:09.622Z,70.48
2018-10-19T23:11:37.944Z,70.32
2018-10-19T23:14:06.620Z,70.28
2018-10-19T23:16:35.032Z,70.31
2018-10-19T23:19:03.384Z,70.34
2018-10-19T23:21:31.730Z,70.94
2018-10-19T23:24:00.022Z,71.03
2018-10-19T23:26:28.406Z,71.10
2018-10-19T23:28:56.727Z,71.20
2018-10-19T23:31:25.116Z,71.49
2018-10-19T23:33:53.398Z,71.69
2018-10-19T23:36:21.685Z,71.43
2018-10-19T23:38:50.022Z,71.41
2018-10-19T23:41:18.370Z,71.60
2018-10-19T23:43:46.731Z,71.39
2018-10-19T23:46:15.018Z,71.16
2018-10-19T23:48:43.397Z,70.81
2018-10-19T23:51:11.966Z,70.92
2018-10-19T23:53:40.354Z,71.05
2018-10-19T23:56:08.839Z,71.07
2018-10-19T23:58:37.170Z,71.29
